Time;durP1;ratioP1;P1;durP2;ratioP2;P2;SDS_P1;SDS_P2;PMS_P1;PMS_P2;Temp;Humidity;BMP_temperature;BMP_pressure;BME280_temperature;BME280_humidity;BME280_pressure;Samples;Min_cycle;Max_cycle;Signal;HPM_P1;HPM_P2
2022/07/24 00:01:08;;;;;;;1.55;1.45;;;;;;;;;;4478007;28;20125;-64
2022/07/24 00:03:21;;;;;;;1.70;1.45;;;;;;;;;;4443514;28;20131;-64
2022/07/24 00:05:31;;;;;;;1.90;1.60;;;;;;;;;;4478279;28;20681;-64
2022/07/24 00:07:43;;;;;;;2.63;1.60;;;;;;;;;;4476264;28;20350;-64
2022/07/24 00:09:54;;;;;;;2.65;1.70;;;;;;;;;;4478929;28;20039;-64
2022/07/24 00:12:05;;;;;;;1.98;1.60;;;;;;;;;;4461029;28;20924;-64
2022/07/24 00:14:16;;;;;;;1.92;1.70;;;;;;;;;;4463435;28;20050;-64
2022/07/24 00:16:26;;;;;;;2.30;1.50;;;;;;;;;;4476529;28;20043;-64
2022/07/24 00:18:37;;;;;;;1.80;1.63;;;;;;;;;;4477563;28;20042;-65
2022/07/24 00:20:47;;;;;;;1.50;1.40;;;;;;;;;;4467433;28;20042;-64
2022/07/24 00:22:58;;;;;;;1.63;1.52;;;;;;;;;;4477764;28;20114;-64
2022/07/24 00:25:08;;;;;;;1.88;1.65;;;;;;;;;;4476886;28;20035;-64
2022/07/24 00:27:19;;;;;;;1.70;1.52;;;;;;;;;;4477436;28;20541;-64
2022/07/24 00:29:29;;;;;;;2.22;1.63;;;;;;;;;;4476717;28;20038;-66
2022/07/24 00:31:40;;;;;;;1.88;1.60;;;;;;;;;;4476186;28;20082;-64
2022/07/24 00:33:50;;;;;;;1.60;1.50;;;;;;;;;;4476827;28;20097;-65
2022/07/24 00:36:01;;;;;;;1.70;1.48;;;;;;;;;;4477574;28;20721;-66
2022/07/24 00:38:11;;;;;;;2.10;1.67;;;;;;;;;;4477205;28;20043;-67
2022/07/24 00:40:22;;;;;;;1.77;1.55;;;;;;;;;;4479133;28;20039;-65
2022/07/24 00:42:32;;;;;;;2.60;1.83;;;;;;;;;;4477126;28;20121;-65
2022/07/24 00:44:43;;;;;;;1.90;1.70;;;;;;;;;;4461746;28;20040;-65
2022/07/24 00:46:53;;;;;;;2.20;1.67;;;;;;;;;;4476530;28;20514;-65
2022/07/24 00:49:05;;;;;;;2.08;1.80;;;;;;;;;;4475642;28;20078;-64
2022/07/24 00:51:16;;;;;;;2.20;1.90;;;;;;;;;;4477689;28;21220;-64
2022/07/24 00:53:26;;;;;;;2.45;1.90;;;;;;;;;;4478093;28;20034;-64
2022/07/24 00:55:37;;;;;;;2.47;2.13;;;;;;;;;;4475181;28;20803;-64
2022/07/24 00:57:48;;;;;;;2.15;1.80;;;;;;;;;;4457511;28;20031;-64
2022/07/24 00:59:59;;;;;;;2.95;1.92;;;;;;;;;;4478960;28;20515;-65
2022/07/24 01:02:11;;;;;;;2.20;2.00;;;;;;;;;;4476614;28;20462;-65
2022/07/24 01:04:22;;;;;;;2.20;1.77;;;;;;;;;;4477211;28;20622;-65
2022/07/24 01:06:33;;;;;;;2.55;2.00;;;;;;;;;;4466177;28;20562;-64
2022/07/24 01:08:43;;;;;;;3.08;2.30;;;;;;;;;;4460577;28;20085;-63
2022/07/24 01:10:54;;;;;;;2.72;1.95;;;;;;;;;;4465171;28;20582;-64
2022/07/24 01:13:04;;;;;;;2.70;2.00;;;;;;;;;;4477963;28;20039;-63
2022/07/24 01:15:15;;;;;;;2.92;1.98;;;;;;;;;;4462815;28;20091;-64
2022/07/24 01:17:33;;;;;;;2.90;2.05;;;;;;;;;;4464885;28;20031;-64
2022/07/24 01:19:44;;;;;;;2.38;2.05;;;;;;;;;;4462787;28;20034;-64
2022/07/24 01:21:54;;;;;;;2.20;1.92;;;;;;;;;;4478332;28;20500;-64
2022/07/24 01:24:05;;;;;;;3.05;1.90;;;;;;;;;;4462991;28;20526;-64
2022/07/24 01:26:16;;;;;;;2.30;1.92;;;;;;;;;;4478624;28;20067;-64
2022/07/24 01:28:26;;;;;;;2.72;1.83;;;;;;;;;;4478669;28;20573;-64
2022/07/24 01:30:37;;;;;;;2.10;1.90;;;;;;;;;;4480141;28;20026;-64
2022/07/24 01:32:47;;;;;;;2.28;2.03;;;;;;;;;;4479290;28;20030;-65
2022/07/24 01:34:58;;;;;;;2.63;2.00;;;;;;;;;;4478845;28;20495;-64
2022/07/24 01:37:08;;;;;;;2.22;2.03;;;;;;;;;;4478037;28;20023;-64
2022/07/24 01:39:19;;;;;;;2.33;1.98;;;;;;;;;;4462429;28;20083;-64
2022/07/24 01:41:29;;;;;;;2.10;1.80;;;;;;;;;;4479704;28;20030;-64
2022/07/24 01:43:40;;;;;;;2.30;1.90;;;;;;;;;;4481322;28;20986;-65
2022/07/24 01:45:50;;;;;;;1.85;1.73;;;;;;;;;;4480607;28;20502;-64
2022/07/24 01:48:01;;;;;;;2.20;1.80;;;;;;;;;;4470596;28;20045;-64
2022/07/24 01:50:13;;;;;;;2.35;2.00;;;;;;;;;;4454307;28;20031;-64
2022/07/24 01:52:26;;;;;;;2.20;1.70;;;;;;;;;;4480143;28;20779;-64
2022/07/24 01:54:37;;;;;;;2.25;2.05;;;;;;;;;;4479098;28;20062;-64
2022/07/24 01:56:47;;;;;;;2.20;2.00;;;;;;;;;;4465228;28;20554;-64
2022/07/24 01:58:58;;;;;;;2.28;1.92;;;;;;;;;;4481331;28;20039;-64
2022/07/24 02:01:08;;;;;;;2.47;1.83;;;;;;;;;;4465051;28;20039;-64
2022/07/24 02:03:19;;;;;;;2.10;1.75;;;;;;;;;;4480405;28;20125;-64
2022/07/24 02:05:30;;;;;;;2.10;1.90;;;;;;;;;;4480938;28;20633;-64
2022/07/24 02:07:41;;;;;;;2.75;1.80;;;;;;;;;;4480863;28;20057;-64
2022/07/24 02:09:52;;;;;;;1.92;1.52;;;;;;;;;;4479602;28;20030;-64
2022/07/24 02:12:03;;;;;;;2.08;1.60;;;;;;;;;;4478480;28;20054;-64
2022/07/24 02:14:13;;;;;;;2.92;1.90;;;;;;;;;;4480264;28;20034;-64
2022/07/24 02:16:23;;;;;;;2.28;2.00;;;;;;;;;;4479152;28;20034;-64
2022/07/24 02:18:34;;;;;;;2.88;1.80;;;;;;;;;;4468696;28;20039;-64
2022/07/24 02:20:44;;;;;;;2.83;1.73;;;;;;;;;;4482341;28;20572;-64
2022/07/24 02:22:55;;;;;;;2.55;1.92;;;;;;;;;;4480352;28;20035;-65
2022/07/24 02:25:06;;;;;;;3.35;1.90;;;;;;;;;;4464709;28;20090;-65
2022/07/24 02:27:17;;;;;;;3.13;1.77;;;;;;;;;;4462831;28;20023;-65
2022/07/24 02:29:27;;;;;;;2.42;1.90;;;;;;;;;;4481108;28;20037;-65
2022/07/24 02:31:38;;;;;;;1.92;1.73;;;;;;;;;;4480357;28;20101;-64
2022/07/24 02:33:49;;;;;;;2.03;1.80;;;;;;;;;;4480095;28;20476;-64
2022/07/24 02:35:59;;;;;;;2.53;1.70;;;;;;;;;;4481282;28;20047;-65
2022/07/24 02:38:09;;;;;;;1.90;1.60;;;;;;;;;;4480103;28;20364;-65
2022/07/24 02:40:20;;;;;;;2.65;1.80;;;;;;;;;;4478920;28;20514;-65
2022/07/24 02:42:30;;;;;;;2.42;1.80;;;;;;;;;;4479199;28;20461;-64
2022/07/24 02:44:41;;;;;;;2.17;1.75;;;;;;;;;;4480766;28;20027;-64
2022/07/24 02:46:51;;;;;;;1.80;1.65;;;;;;;;;;4479834;28;20487;-64
2022/07/24 02:49:02;;;;;;;2.20;1.73;;;;;;;;;;4480830;28;20097;-64
2022/07/24 02:51:12;;;;;;;1.77;1.67;;;;;;;;;;4464046;28;20039;-65
2022/07/24 02:53:23;;;;;;;2.92;1.80;;;;;;;;;;4478603;28;20031;-66
2022/07/24 02:55:34;;;;;;;3.10;2.00;;;;;;;;;;4452835;28;20046;-65
2022/07/24 02:57:44;;;;;;;2.75;1.80;;;;;;;;;;4464619;28;20103;-65
2022/07/24 02:59:55;;;;;;;2.10;1.90;;;;;;;;;;4468846;28;20513;-64
2022/07/24 03:02:05;;;;;;;2.38;1.67;;;;;;;;;;4468875;28;20038;-64
2022/07/24 03:04:16;;;;;;;2.00;1.55;;;;;;;;;;4463995;28;20089;-64
2022/07/24 03:06:26;;;;;;;2.30;1.50;;;;;;;;;;4480276;28;20078;-64
2022/07/24 03:08:37;;;;;;;2.53;1.95;;;;;;;;;;4479322;28;20030;-65
2022/07/24 03:10:47;;;;;;;1.70;1.60;;;;;;;;;;4480592;28;20510;-64
2022/07/24 03:12:58;;;;;;;2.00;1.80;;;;;;;;;;4479652;28;20039;-64
2022/07/24 03:15:09;;;;;;;2.85;1.92;;;;;;;;;;4461992;28;20082;-64
2022/07/24 03:17:20;;;;;;;1.70;1.60;;;;;;;;;;4468678;28;20035;-64
2022/07/24 03:19:30;;;;;;;2.15;1.60;;;;;;;;;;4478502;28;20066;-64
2022/07/24 03:21:41;;;;;;;2.33;1.83;;;;;;;;;;4467608;28;20045;-62
2022/07/24 03:23:51;;;;;;;2.30;1.60;;;;;;;;;;4479377;28;20230;-65
2022/07/24 03:26:02;;;;;;;2.28;1.70;;;;;;;;;;4481125;28;20077;-64
2022/07/24 03:28:12;;;;;;;1.92;1.67;;;;;;;;;;4480442;28;20043;-64
2022/07/24 03:30:23;;;;;;;1.80;1.52;;;;;;;;;;4463365;28;20034;-64
2022/07/24 03:32:33;;;;;;;1.70;1.50;;;;;;;;;;4477012;28;20093;-64
2022/07/24 03:34:44;;;;;;;1.88;1.60;;;;;;;;;;4478073;28;20101;-64
2022/07/24 03:36:54;;;;;;;1.52;1.42;;;;;;;;;;4470112;28;20042;-63
2022/07/24 03:39:05;;;;;;;2.00;1.70;;;;;;;;;;4479680;28;20023;-64
2022/07/24 03:41:16;;;;;;;1.58;1.40;;;;;;;;;;4452865;28;21093;-64
2022/07/24 03:43:26;;;;;;;2.00;1.52;;;;;;;;;;4481083;28;20129;-65
2022/07/24 03:45:37;;;;;;;2.13;1.58;;;;;;;;;;4480872;28;20137;-64
2022/07/24 03:47:48;;;;;;;2.00;1.70;;;;;;;;;;4464934;28;20118;-64
2022/07/24 03:49:58;;;;;;;2.00;1.63;;;;;;;;;;4478787;28;20126;-64
2022/07/24 03:52:09;;;;;;;2.45;1.80;;;;;;;;;;4478831;28;20644;-64
2022/07/24 03:54:19;;;;;;;3.80;1.73;;;;;;;;;;4467434;28;20116;-64
2022/07/24 03:56:30;;;;;;;1.80;1.60;;;;;;;;;;4479035;28;20034;-64
2022/07/24 03:58:41;;;;;;;2.53;1.80;;;;;;;;;;4462851;28;20085;-64
2022/07/24 04:00:51;;;;;;;2.10;1.60;;;;;;;;;;4479059;28;20046;-64
2022/07/24 04:03:02;;;;;;;2.00;1.63;;;;;;;;;;4480035;28;20057;-64
2022/07/24 04:05:13;;;;;;;2.05;1.80;;;;;;;;;;4460873;28;20071;-64
2022/07/24 04:07:23;;;;;;;2.40;1.77;;;;;;;;;;4478086;28;20049;-65
2022/07/24 04:09:34;;;;;;;2.05;1.65;;;;;;;;;;4451042;28;20036;-64
2022/07/24 04:11:46;;;;;;;2.78;1.63;;;;;;;;;;4466816;28;20130;-64
2022/07/24 04:13:56;;;;;;;2.10;1.70;;;;;;;;;;4462976;28;20039;-64
2022/07/24 04:16:07;;;;;;;1.90;1.60;;;;;;;;;;4477090;28;20043;-64
2022/07/24 04:18:17;;;;;;;2.38;1.70;;;;;;;;;;4466653;28;20069;-64
2022/07/24 04:20:28;;;;;;;2.05;1.70;;;;;;;;;;4478704;28;20073;-64
2022/07/24 04:22:39;;;;;;;1.60;1.40;;;;;;;;;;4467066;28;20035;-64
2022/07/24 04:24:49;;;;;;;2.28;1.77;;;;;;;;;;4463316;28;20041;-64
2022/07/24 04:27:00;;;;;;;2.08;1.80;;;;;;;;;;4478481;28;20036;-64
2022/07/24 04:29:10;;;;;;;2.22;1.63;;;;;;;;;;4478974;28;20038;-64
2022/07/24 04:31:21;;;;;;;1.80;1.55;;;;;;;;;;4478534;28;20047;-65
2022/07/24 04:33:31;;;;;;;2.40;1.60;;;;;;;;;;4477556;28;20042;-64
2022/07/24 04:35:42;;;;;;;2.08;1.70;;;;;;;;;;4476547;28;20065;-65
2022/07/24 04:37:52;;;;;;;1.73;1.60;;;;;;;;;;4477748;28;20031;-64
2022/07/24 04:40:03;;;;;;;2.42;1.80;;;;;;;;;;4461584;28;21097;-64
2022/07/24 04:42:14;;;;;;;1.80;1.50;;;;;;;;;;4477022;28;20082;-64
2022/07/24 04:44:24;;;;;;;1.75;1.52;;;;;;;;;;4479066;28;20045;-64
2022/07/24 04:46:35;;;;;;;2.15;1.60;;;;;;;;;;4476939;28;20042;-64
2022/07/24 04:48:45;;;;;;;1.70;1.45;;;;;;;;;;4477967;28;20125;-64
2022/07/24 04:50:56;;;;;;;1.85;1.48;;;;;;;;;;4477721;28;20034;-64
2022/07/24 04:53:06;;;;;;;2.10;1.50;;;;;;;;;;4478144;28;20035;-64
2022/07/24 04:55:16;;;;;;;2.28;1.60;;;;;;;;;;4477923;28;20030;-64
2022/07/24 04:57:27;;;;;;;2.00;1.60;;;;;;;;;;4477336;28;20042;-64
2022/07/24 04:59:38;;;;;;;2.40;1.60;;;;;;;;;;4463628;28;20525;-64
2022/07/24 05:01:48;;;;;;;2.50;1.70;;;;;;;;;;4467056;28;20031;-65
2022/07/24 05:03:58;;;;;;;2.67;1.63;;;;;;;;;;4479064;28;20098;-64
2022/07/24 05:06:09;;;;;;;2.10;1.67;;;;;;;;;;4475737;28;20162;-64
2022/07/24 05:08:19;;;;;;;2.22;1.40;;;;;;;;;;4479426;28;20290;-64
2022/07/24 05:10:30;;;;;;;1.50;1.40;;;;;;;;;;4477082;28;20867;-65
2022/07/24 05:12:40;;;;;;;2.00;1.60;;;;;;;;;;4477153;28;20031;-65
2022/07/24 05:14:51;;;;;;;2.33;1.40;;;;;;;;;;4457624;28;20066;-64
2022/07/24 05:17:02;;;;;;;1.83;1.58;;;;;;;;;;4485057;28;20043;-64
2022/07/24 05:19:12;;;;;;;1.70;1.55;;;;;;;;;;4483751;28;20038;-64
2022/07/24 05:21:23;;;;;;;2.40;1.38;;;;;;;;;;4457104;28;20039;-64
2022/07/24 05:23:33;;;;;;;1.52;1.40;;;;;;;;;;4466195;28;20594;-65
2022/07/24 05:25:44;;;;;;;2.10;1.55;;;;;;;;;;4480637;28;20500;-64
2022/07/24 05:27:54;;;;;;;2.55;1.63;;;;;;;;;;4484077;28;20487;-65
2022/07/24 05:30:06;;;;;;;2.15;1.65;;;;;;;;;;4481935;28;20035;-65
2022/07/24 05:32:16;;;;;;;2.50;1.80;;;;;;;;;;4481532;28;20115;-64
2022/07/24 05:34:27;;;;;;;1.83;1.60;;;;;;;;;;4485758;28;20046;-65
2022/07/24 05:36:37;;;;;;;2.47;1.70;;;;;;;;;;4484335;28;20027;-64
2022/07/24 05:38:48;;;;;;;1.80;1.58;;;;;;;;;;4484157;28;20034;-64
2022/07/24 05:40:58;;;;;;;2.42;1.55;;;;;;;;;;4484559;28;20402;-64
2022/07/24 05:43:09;;;;;;;3.70;2.30;;;;;;;;;;4482145;28;20172;-64
2022/07/24 05:45:19;;;;;;;2.25;1.80;;;;;;;;;;4483551;28;20046;-64
2022/07/24 05:47:36;;;;;;;3.53;1.83;;;;;;;;;;4469232;28;20554;-64
2022/07/24 05:49:47;;;;;;;2.20;1.95;;;;;;;;;;4483862;28;20137;-64
2022/07/24 05:51:57;;;;;;;3.05;1.92;;;;;;;;;;4472846;28;20055;-65
2022/07/24 05:54:08;;;;;;;2.63;1.70;;;;;;;;;;4465600;28;20122;-64
2022/07/24 05:56:18;;;;;;;2.45;1.90;;;;;;;;;;4464588;28;20039;-65
2022/07/24 05:58:29;;;;;;;1.63;1.48;;;;;;;;;;4466549;28;20171;-65
2022/07/24 06:00:39;;;;;;;2.35;1.90;;;;;;;;;;4439373;28;20392;-65
2022/07/24 06:02:50;;;;;;;2.08;1.85;;;;;;;;;;4465565;28;20109;-67
2022/07/24 06:05:00;;;;;;;2.10;1.90;;;;;;;;;;4448169;28;20791;-63
2022/07/24 06:07:11;;;;;;;2.33;1.65;;;;;;;;;;4450281;28;20035;-63
2022/07/24 06:09:21;;;;;;;2.50;1.90;;;;;;;;;;4450817;28;20072;-62
2022/07/24 06:11:32;;;;;;;2.10;1.90;;;;;;;;;;4439033;28;20107;-63
2022/07/24 06:13:42;;;;;;;2.13;1.90;;;;;;;;;;4466110;28;20463;-63
2022/07/24 06:15:53;;;;;;;2.70;2.05;;;;;;;;;;4450496;28;20031;-63
2022/07/24 06:18:04;;;;;;;2.05;1.80;;;;;;;;;;4466893;28;20074;-63
2022/07/24 06:20:16;;;;;;;2.70;1.90;;;;;;;;;;4468091;28;21409;-63
2022/07/24 06:22:26;;;;;;;3.35;1.83;;;;;;;;;;4451166;28;20031;-63
2022/07/24 06:24:37;;;;;;;1.88;1.60;;;;;;;;;;4464936;28;20443;-63
2022/07/24 06:26:47;;;;;;;2.25;1.83;;;;;;;;;;4448002;28;20515;-63
2022/07/24 06:28:57;;;;;;;2.50;2.03;;;;;;;;;;4461766;28;20039;-63
2022/07/24 06:31:08;;;;;;;2.60;2.08;;;;;;;;;;4461585;28;20047;-63
2022/07/24 06:33:18;;;;;;;2.90;2.03;;;;;;;;;;4446014;28;20040;-63
2022/07/24 06:35:32;;;;;;;2.17;1.98;;;;;;;;;;4462658;28;20034;-63
2022/07/24 06:37:43;;;;;;;2.40;1.83;;;;;;;;;;4463101;28;20067;-62
2022/07/24 06:39:53;;;;;;;2.78;2.28;;;;;;;;;;4463520;28;20578;-62
2022/07/24 06:42:04;;;;;;;3.38;2.22;;;;;;;;;;4448261;28;20086;-62
2022/07/24 06:44:14;;;;;;;2.42;2.03;;;;;;;;;;4463827;28;20577;-62
2022/07/24 06:46:25;;;;;;;2.45;2.05;;;;;;;;;;4463473;28;20127;-62
2022/07/24 06:48:36;;;;;;;2.53;2.10;;;;;;;;;;4443764;28;20131;-62
2022/07/24 06:50:46;;;;;;;2.60;2.10;;;;;;;;;;4445121;28;20548;-62
2022/07/24 06:52:57;;;;;;;2.40;1.92;;;;;;;;;;4460796;28;20023;-63
2022/07/24 06:55:08;;;;;;;3.05;2.45;;;;;;;;;;4462616;28;20412;-62
2022/07/24 06:57:18;;;;;;;2.65;2.08;;;;;;;;;;4462398;28;21059;-63
2022/07/24 06:59:29;;;;;;;2.65;2.20;;;;;;;;;;4461643;28;20030;-62
2022/07/24 07:01:39;;;;;;;2.90;2.17;;;;;;;;;;4462462;28;20042;-63
2022/07/24 07:03:50;;;;;;;2.78;2.15;;;;;;;;;;4462668;28;20881;-62
2022/07/24 07:06:00;;;;;;;3.28;2.30;;;;;;;;;;4459338;28;20488;-62
2022/07/24 07:08:11;;;;;;;2.78;2.28;;;;;;;;;;4461156;28;20043;-63
2022/07/24 07:10:21;;;;;;;2.60;2.33;;;;;;;;;;4460744;28;20046;-63
2022/07/24 07:12:32;;;;;;;2.35;2.00;;;;;;;;;;4460454;28;20042;-63
2022/07/24 07:14:42;;;;;;;2.50;2.20;;;;;;;;;;4462699;28;20472;-63
2022/07/24 07:16:53;;;;;;;3.35;2.10;;;;;;;;;;4445031;28;20046;-63
2022/07/24 07:19:03;;;;;;;3.35;2.17;;;;;;;;;;4461296;28;20078;-63
2022/07/24 07:21:14;;;;;;;3.28;2.65;;;;;;;;;;4458983;28;20104;-63
2022/07/24 07:23:26;;;;;;;2.53;2.25;;;;;;;;;;4463069;28;20122;-63
2022/07/24 07:25:36;;;;;;;3.05;2.40;;;;;;;;;;4446618;28;20063;-63
2022/07/24 07:27:47;;;;;;;2.75;2.45;;;;;;;;;;4462737;28;20034;-63
2022/07/24 07:29:58;;;;;;;3.00;2.30;;;;;;;;;;4463110;28;20039;-63
2022/07/24 07:32:08;;;;;;;3.17;2.40;;;;;;;;;;4462210;28;20042;-62
2022/07/24 07:34:19;;;;;;;2.80;2.38;;;;;;;;;;4460775;28;20039;-64
2022/07/24 07:36:29;;;;;;;2.40;2.20;;;;;;;;;;4460180;28;20035;-63
2022/07/24 07:38:40;;;;;;;2.58;2.35;;;;;;;;;;4460453;28;20126;-63
2022/07/24 07:40:50;;;;;;;2.70;2.42;;;;;;;;;;4462099;28;20492;-67
2022/07/24 07:43:01;;;;;;;2.90;2.40;;;;;;;;;;4460539;28;20932;-64
2022/07/24 07:45:12;;;;;;;2.78;2.13;;;;;;;;;;4461870;28;20093;-64
2022/07/24 07:47:22;;;;;;;3.58;2.55;;;;;;;;;;4459913;28;20097;-64
2022/07/24 07:49:33;;;;;;;2.90;2.60;;;;;;;;;;4461405;28;20043;-64
2022/07/24 07:51:47;;;;;;;3.65;2.38;;;;;;;;;;4447753;28;20086;-64
2022/07/24 07:53:57;;;;;;;3.00;2.47;;;;;;;;;;4461903;28;20038;-64
2022/07/24 07:56:07;;;;;;;3.63;2.88;;;;;;;;;;4445665;28;20050;-63
2022/07/24 07:58:19;;;;;;;3.17;2.58;;;;;;;;;;4460619;28;20281;-64
2022/07/24 08:00:30;;;;;;;3.22;2.42;;;;;;;;;;4460030;28;20190;-63
2022/07/24 08:02:40;;;;;;;3.75;2.50;;;;;;;;;;4460260;28;20446;-63
2022/07/24 08:04:51;;;;;;;2.90;2.60;;;;;;;;;;4445330;28;20028;-63
2022/07/24 08:07:01;;;;;;;3.13;2.75;;;;;;;;;;4460328;28;20038;-64
2022/07/24 08:09:12;;;;;;;3.33;2.67;;;;;;;;;;4462782;28;20043;-64
2022/07/24 08:11:22;;;;;;;4.30;2.67;;;;;;;;;;4461386;28;20038;-63
2022/07/24 08:13:33;;;;;;;3.10;2.67;;;;;;;;;;4461388;28;20852;-63
2022/07/24 08:15:44;;;;;;;3.60;2.60;;;;;;;;;;4459868;28;20067;-63
2022/07/24 08:17:56;;;;;;;3.13;2.72;;;;;;;;;;4460226;28;20039;-64
2022/07/24 08:20:07;;;;;;;2.92;2.63;;;;;;;;;;4461552;28;20022;-64
2022/07/24 08:22:17;;;;;;;3.58;2.70;;;;;;;;;;4459378;28;20045;-63
2022/07/24 08:24:30;;;;;;;3.40;2.58;;;;;;;;;;4462061;28;20045;-63
2022/07/24 08:26:40;;;;;;;3.67;2.80;;;;;;;;;;4449493;28;20031;-63
2022/07/24 08:28:51;;;;;;;3.00;2.70;;;;;;;;;;4444703;28;20019;-63
2022/07/24 08:31:01;;;;;;;3.33;2.67;;;;;;;;;;4461551;28;20050;-63
2022/07/24 08:33:11;;;;;;;3.13;2.63;;;;;;;;;;4460956;28;20047;-63
2022/07/24 08:35:23;;;;;;;3.25;2.45;;;;;;;;;;4460445;28;20062;-63
2022/07/24 08:37:38;;;;;;;4.03;3.10;;;;;;;;;;4445113;28;20038;-63
2022/07/24 08:39:48;;;;;;;3.13;2.78;;;;;;;;;;4460340;28;20105;-63
2022/07/24 08:41:59;;;;;;;3.20;2.58;;;;;;;;;;4460024;28;20063;-63
2022/07/24 08:44:10;;;;;;;3.60;2.80;;;;;;;;;;4460683;28;20035;-63
2022/07/24 08:46:20;;;;;;;3.20;2.70;;;;;;;;;;4461988;28;20043;-64
2022/07/24 08:48:31;;;;;;;3.53;3.05;;;;;;;;;;4461895;28;20126;-64
2022/07/24 08:50:42;;;;;;;3.50;2.80;;;;;;;;;;4459660;28;20066;-64
2022/07/24 08:52:53;;;;;;;3.17;2.75;;;;;;;;;;4445966;28;20603;-64
2022/07/24 08:55:04;;;;;;;3.08;2.67;;;;;;;;;;4461083;28;20043;-63
2022/07/24 08:57:14;;;;;;;3.40;3.10;;;;;;;;;;4445680;28;20039;-63
2022/07/24 08:59:25;;;;;;;3.20;2.75;;;;;;;;;;4459995;28;20042;-64
2022/07/24 09:01:35;;;;;;;4.70;3.08;;;;;;;;;;4460152;28;20027;-63
2022/07/24 09:03:46;;;;;;;3.70;3.00;;;;;;;;;;4461701;28;20067;-64
2022/07/24 09:05:58;;;;;;;3.95;2.97;;;;;;;;;;4433013;28;20091;-63
2022/07/24 09:08:11;;;;;;;3.80;3.15;;;;;;;;;;4460685;28;20022;-63
2022/07/24 09:10:28;;;;;;;4.50;3.42;;;;;;;;;;4443713;28;20035;-64
2022/07/24 09:12:44;;;;;;;3.38;3.03;;;;;;;;;;4443361;28;20155;-64
2022/07/24 09:14:54;;;;;;;4.18;3.13;;;;;;;;;;4458800;28;20034;-64
2022/07/24 09:17:10;;;;;;;3.65;2.90;;;;;;;;;;4443200;28;20039;-62
2022/07/24 09:19:21;;;;;;;3.97;3.40;;;;;;;;;;4440466;28;20032;-63
2022/07/24 09:21:34;;;;;;;3.80;3.00;;;;;;;;;;4461526;28;20488;-63
2022/07/24 09:23:45;;;;;;;4.88;3.55;;;;;;;;;;4444128;28;20140;-63
2022/07/24 09:25:55;;;;;;;3.50;3.10;;;;;;;;;;4460380;28;20094;-63
2022/07/24 09:28:06;;;;;;;3.53;2.88;;;;;;;;;;4444917;28;20059;-63
2022/07/24 09:30:38;;;;;;;3.95;3.30;;;;;;;;;;4461531;28;20031;-64
2022/07/24 09:32:58;;;;;;;8.70;3.58;;;;;;;;;;4443230;28;20083;-63
2022/07/24 09:35:09;;;;;;;9.73;3.25;;;;;;;;;;4459127;28;20033;-63
2022/07/24 09:37:20;;;;;;;10.75;3.55;;;;;;;;;;4460309;28;20047;-64
2022/07/24 09:39:33;;;;;;;9.88;3.42;;;;;;;;;;4458198;28;20083;-64
2022/07/24 09:41:52;;;;;;;8.07;3.10;;;;;;;;;;4458221;28;20042;-66
2022/07/24 09:44:03;;;;;;;11.55;3.38;;;;;;;;;;4459456;28;20779;-64
2022/07/24 09:46:15;;;;;;;10.10;3.50;;;;;;;;;;4443775;28;20319;-64
2022/07/24 09:48:39;;;;;;;13.82;4.78;;;;;;;;;;4449477;28;20235;-64
2022/07/24 09:50:51;;;;;;;13.07;4.90;;;;;;;;;;4442002;28;20035;-64
2022/07/24 09:53:03;;;;;;;13.77;5.45;;;;;;;;;;4444823;28;20027;-64
2022/07/24 09:55:24;;;;;;;13.65;5.20;;;;;;;;;;4447990;28;20039;-62
2022/07/24 09:57:35;;;;;;;18.80;6.75;;;;;;;;;;4447545;28;20031;-62
2022/07/24 09:59:48;;;;;;;16.88;6.05;;;;;;;;;;4443963;28;20644;-61
2022/07/24 10:01:59;;;;;;;19.23;6.65;;;;;;;;;;4460064;28;20602;-62
2022/07/24 10:04:13;;;;;;;12.82;5.45;;;;;;;;;;4451210;28;20035;-62
2022/07/24 10:06:25;;;;;;;17.00;6.50;;;;;;;;;;4462638;28;20041;-62
2022/07/24 10:08:39;;;;;;;17.55;6.30;;;;;;;;;;4447503;28;20090;-62
2022/07/24 10:10:50;;;;;;;16.88;6.75;;;;;;;;;;4446096;28;20084;-63
2022/07/24 10:13:00;;;;;;;15.80;5.97;;;;;;;;;;4443659;28;20131;-62
2022/07/24 10:15:11;;;;;;;15.73;6.20;;;;;;;;;;4447307;28;20605;-62
2022/07/24 10:17:29;;;;;;;20.65;7.00;;;;;;;;;;4462017;28;20396;-62
2022/07/24 10:19:45;;;;;;;15.85;6.18;;;;;;;;;;4459892;28;20074;-62
2022/07/24 10:21:57;;;;;;;14.57;5.33;;;;;;;;;;4445829;28;20039;-62
2022/07/24 10:24:16;;;;;;;16.23;5.90;;;;;;;;;;4461476;28;20324;-62
2022/07/24 10:26:49;;;;;;;16.67;6.55;;;;;;;;;;4441436;28;20051;-63
2022/07/24 10:29:07;;;;;;;14.70;5.68;;;;;;;;;;4460628;28;20042;-63
2022/07/24 10:31:18;;;;;;;14.32;5.85;;;;;;;;;;4459664;28;20030;-63
2022/07/24 10:33:29;;;;;;;14.00;6.03;;;;;;;;;;4463921;28;20066;-63
2022/07/24 10:35:39;;;;;;;16.42;6.13;;;;;;;;;;4462005;28;20526;-63
2022/07/24 10:38:01;;;;;;;15.40;5.55;;;;;;;;;;4448554;28;20063;-63
2022/07/24 10:40:20;;;;;;;15.07;5.82;;;;;;;;;;4463042;28;20134;-62
2022/07/24 10:42:31;;;;;;;12.27;4.82;;;;;;;;;;4451415;28;20031;-63
2022/07/24 10:44:44;;;;;;;13.20;5.30;;;;;;;;;;4462431;28;20639;-62
2022/07/24 10:47:08;;;;;;;12.68;4.72;;;;;;;;;;4456456;28;20127;-62
2022/07/24 10:49:38;;;;;;;12.15;4.85;;;;;;;;;;4462633;28;20027;-62
2022/07/24 10:51:59;;;;;;;11.32;4.90;;;;;;;;;;4460414;28;20054;-63
2022/07/24 10:54:18;;;;;;;10.23;4.35;;;;;;;;;;4447411;28;20320;-63
2022/07/24 10:56:38;;;;;;;10.95;4.25;;;;;;;;;;4446443;28;20853;-63
2022/07/24 10:59:10;;;;;;;8.55;4.20;;;;;;;;;;4451961;28;20134;-63
2022/07/24 11:01:37;;;;;;;7.57;3.97;;;;;;;;;;4450505;28;20681;-63
2022/07/24 11:03:50;;;;;;;11.35;4.78;;;;;;;;;;4462792;28;20705;-63
2022/07/24 11:06:05;;;;;;;12.85;4.70;;;;;;;;;;4461464;28;20109;-63
2022/07/24 11:08:16;;;;;;;10.43;4.28;;;;;;;;;;4462167;28;20103;-63
2022/07/24 11:10:45;;;;;;;8.30;4.30;;;;;;;;;;4462205;28;20086;-63
2022/07/24 11:12:56;;;;;;;10.73;4.20;;;;;;;;;;4459660;28;20126;-63
2022/07/24 11:17:43;;;;;;;8.25;4.43;;;;;;;;;;4449251;28;20507;-63
2022/07/24 11:19:56;;;;;;;8.77;4.28;;;;;;;;;;4462315;28;20046;-63
2022/07/24 11:22:08;;;;;;;12.35;4.55;;;;;;;;;;4451924;28;20039;-63
2022/07/24 11:24:25;;;;;;;11.75;4.50;;;;;;;;;;4464574;28;20133;-63
2022/07/24 11:26:40;;;;;;;9.75;4.32;;;;;;;;;;4445836;28;20039;-62
2022/07/24 11:29:10;;;;;;;8.98;4.43;;;;;;;;;;4460637;28;20618;-63
2022/07/24 11:31:20;;;;;;;10.38;4.63;;;;;;;;;;4446927;28;20603;-63
2022/07/24 11:33:31;;;;;;;7.25;4.22;;;;;;;;;;4459894;28;20505;-63
2022/07/24 11:35:42;;;;;;;11.02;4.45;;;;;;;;;;4449608;28;20039;-63
2022/07/24 11:37:53;;;;;;;10.52;4.30;;;;;;;;;;4435793;28;20364;-63
2022/07/24 11:40:07;;;;;;;7.85;4.30;;;;;;;;;;4462943;28;20070;-63
2022/07/24 11:42:17;;;;;;;8.63;4.13;;;;;;;;;;4462782;28;20495;-63
2022/07/24 11:44:33;;;;;;;7.18;3.80;;;;;;;;;;4463808;28;20038;-63
2022/07/24 11:46:44;;;;;;;9.02;4.10;;;;;;;;;;4462986;28;20042;-63
2022/07/24 11:49:04;;;;;;;8.25;3.42;;;;;;;;;;4460900;28;20026;-63
2022/07/24 11:51:15;;;;;;;7.82;3.63;;;;;;;;;;4451434;28;20051;-63
2022/07/24 11:53:25;;;;;;;6.63;3.35;;;;;;;;;;4451177;28;20523;-63
2022/07/24 11:55:37;;;;;;;10.45;4.15;;;;;;;;;;4463113;28;20041;-63
2022/07/24 11:57:53;;;;;;;7.07;3.50;;;;;;;;;;4447754;28;20526;-63
2022/07/24 12:00:08;;;;;;;8.25;3.90;;;;;;;;;;4461431;28;20039;-62
2022/07/24 12:02:23;;;;;;;9.10;3.63;;;;;;;;;;4450345;28;20063;-62
2022/07/24 12:04:34;;;;;;;8.40;3.80;;;;;;;;;;4461829;28;20031;-63
2022/07/24 12:06:45;;;;;;;8.15;3.70;;;;;;;;;;4461783;28;20031;-63
2022/07/24 12:08:58;;;;;;;9.50;4.10;;;;;;;;;;4459333;28;21064;-63
2022/07/24 12:11:08;;;;;;;6.82;3.53;;;;;;;;;;4459553;28;20043;-63
2022/07/24 12:13:19;;;;;;;8.88;3.58;;;;;;;;;;4461610;28;20039;-62
2022/07/24 12:15:29;;;;;;;8.15;4.10;;;;;;;;;;4460957;28;20035;-63
2022/07/24 12:18:00;;;;;;;8.77;3.97;;;;;;;;;;4445678;28;20047;-63
2022/07/24 12:20:10;;;;;;;7.68;3.67;;;;;;;;;;4442710;28;20047;-62
2022/07/24 12:22:22;;;;;;;7.57;3.88;;;;;;;;;;4462966;28;20102;-63
2022/07/24 12:24:32;;;;;;;9.65;3.83;;;;;;;;;;4462493;28;20139;-63
2022/07/24 12:26:56;;;;;;;7.57;3.38;;;;;;;;;;4461451;28;20127;-62
2022/07/24 12:29:11;;;;;;;6.22;3.75;;;;;;;;;;4461147;28;20646;-62
2022/07/24 12:31:21;;;;;;;7.13;3.58;;;;;;;;;;4460039;28;20121;-62
2022/07/24 12:33:33;;;;;;;7.20;3.22;;;;;;;;;;4461928;28;20118;-62
2022/07/24 12:35:53;;;;;;;6.88;3.30;;;;;;;;;;4461975;28;20095;-62
2022/07/24 12:38:04;;;;;;;6.63;3.72;;;;;;;;;;4443275;28;20047;-62
2022/07/24 12:40:23;;;;;;;7.95;3.67;;;;;;;;;;4446240;28;20043;-62
2022/07/24 12:42:34;;;;;;;7.18;3.65;;;;;;;;;;4450834;28;20066;-65
2022/07/24 12:44:45;;;;;;;6.15;3.72;;;;;;;;;;4450335;28;20465;-63
2022/07/24 12:46:57;;;;;;;5.80;3.50;;;;;;;;;;4445121;28;20024;-63
2022/07/24 12:49:13;;;;;;;6.72;3.50;;;;;;;;;;4461753;28;20051;-63
2022/07/24 12:51:23;;;;;;;7.20;4.22;;;;;;;;;;4461202;28;20049;-63
2022/07/24 12:53:35;;;;;;;9.85;4.25;;;;;;;;;;4450057;28;20078;-63
2022/07/24 12:55:45;;;;;;;6.22;3.45;;;;;;;;;;4443577;28;20039;-62
2022/07/24 12:58:04;;;;;;;6.05;3.50;;;;;;;;;;4461018;28;20941;-64
2022/07/24 13:00:14;;;;;;;8.13;3.42;;;;;;;;;;4461826;28;20042;-63
2022/07/24 13:02:25;;;;;;;5.95;3.40;;;;;;;;;;4444703;28;20768;-61
2022/07/24 13:04:47;;;;;;;6.20;3.45;;;;;;;;;;4445340;28;20039;-60
2022/07/24 13:06:59;;;;;;;6.43;3.35;;;;;;;;;;4443215;28;20043;-62
2022/07/24 13:09:11;;;;;;;7.68;3.50;;;;;;;;;;4461704;28;20036;-60
2022/07/24 13:11:22;;;;;;;10.98;3.75;;;;;;;;;;4439455;28;20051;-63